Zurich, Kansas
Current Conditions -  °F | °C
As of 8:15 PM on Friday 31 Oct 2014 (Local Time) from KHYS Reporting Station
Clear Clear  
Wind Chill: 29°   Ceiling: Unl
Heat Index: 36°   Visibility: 10mi
Dew Point: 16°   Wind: 8mph
Humidity: 44%   Direction: 120°ESE
Pressure: 30.4"   Gusts: NA
Location:  39.2151°N, 99.302°W
Report Text: KHYS 010115Z AUTO 12007KT 10SM CLR 02/M09 A3040 RMK AO1
Loading
Personal Weather Stations






























Interactive Weather Map
Tropical Storm Tracking
New forecast layout! Learn more

10-Day Weather Forecast

Advertisements
Track Severe Weather on mobile